sensor_id;sensor_type;location;lat;lon;timestamp;temperature;humidity
43524;DHT22;29120;52.006;6.020;2022-08-21T00:02:17;16.80;84.50
43524;DHT22;29120;52.006;6.020;2022-08-21T00:04:43;16.80;84.50
43524;DHT22;29120;52.006;6.020;2022-08-21T00:07:09;16.70;84.60
43524;DHT22;29120;52.006;6.020;2022-08-21T00:09:35;16.70;84.70
43524;DHT22;29120;52.006;6.020;2022-08-21T00:12:01;16.70;84.90
43524;DHT22;29120;52.006;6.020;2022-08-21T00:14:26;16.70;85.00
43524;DHT22;29120;52.006;6.020;2022-08-21T00:16:52;16.60;85.10
43524;DHT22;29120;52.006;6.020;2022-08-21T00:19:18;16.60;85.20
43524;DHT22;29120;52.006;6.020;2022-08-21T00:21:43;16.60;85.40
43524;DHT22;29120;52.006;6.020;2022-08-21T00:24:09;16.60;85.50
43524;DHT22;29120;52.006;6.020;2022-08-21T00:26:34;16.50;85.60
43524;DHT22;29120;52.006;6.020;2022-08-21T00:29:00;16.50;85.70
43524;DHT22;29120;52.006;6.020;2022-08-21T00:31:25;16.40;85.50
43524;DHT22;29120;52.006;6.020;2022-08-21T00:33:51;16.50;85.60
43524;DHT22;29120;52.006;6.020;2022-08-21T00:36:17;16.40;85.60
43524;DHT22;29120;52.006;6.020;2022-08-21T00:38:42;16.30;85.70
43524;DHT22;29120;52.006;6.020;2022-08-21T00:41:10;16.30;85.90
43524;DHT22;29120;52.006;6.020;2022-08-21T00:43:38;16.30;86.00
43524;DHT22;29120;52.006;6.020;2022-08-21T00:46:05;16.30;86.20
43524;DHT22;29120;52.006;6.020;2022-08-21T00:48:32;16.20;86.30
43524;DHT22;29120;52.006;6.020;2022-08-21T00:51:05;16.20;86.40
43524;DHT22;29120;52.006;6.020;2022-08-21T00:53:32;16.20;86.60
43524;DHT22;29120;52.006;6.020;2022-08-21T00:56:00;16.10;86.40
43524;DHT22;29120;52.006;6.020;2022-08-21T00:58:28;16.10;86.40
43524;DHT22;29120;52.006;6.020;2022-08-21T01:00:56;16.10;86.60
43524;DHT22;29120;52.006;6.020;2022-08-21T01:03:24;16.10;86.60
43524;DHT22;29120;52.006;6.020;2022-08-21T01:05:51;16.00;86.70
43524;DHT22;29120;52.006;6.020;2022-08-21T01:08:17;16.00;86.90
43524;DHT22;29120;52.006;6.020;2022-08-21T01:10:44;15.90;87.10
43524;DHT22;29120;52.006;6.020;2022-08-21T01:13:12;16.00;87.30
43524;DHT22;29120;52.006;6.020;2022-08-21T01:15:44;15.90;87.40
43524;DHT22;29120;52.006;6.020;2022-08-21T01:18:11;15.90;87.60
43524;DHT22;29120;52.006;6.020;2022-08-21T01:20:41;15.90;87.70
43524;DHT22;29120;52.006;6.020;2022-08-21T01:23:07;15.80;87.90
43524;DHT22;29120;52.006;6.020;2022-08-21T01:25:33;15.80;87.90
43524;DHT22;29120;52.006;6.020;2022-08-21T01:28:04;15.80;88.00
43524;DHT22;29120;52.006;6.020;2022-08-21T01:30:34;15.70;88.00
43524;DHT22;29120;52.006;6.020;2022-08-21T01:33:00;15.70;88.20
43524;DHT22;29120;52.006;6.020;2022-08-21T01:35:26;15.70;88.30
43524;DHT22;29120;52.006;6.020;2022-08-21T01:37:51;15.60;88.30
43524;DHT22;29120;52.006;6.020;2022-08-21T01:40:17;15.60;88.40
43524;DHT22;29120;52.006;6.020;2022-08-21T01:42:44;15.60;88.40
43524;DHT22;29120;52.006;6.020;2022-08-21T01:45:11;15.60;88.40
43524;DHT22;29120;52.006;6.020;2022-08-21T01:47:37;15.60;88.40
43524;DHT22;29120;52.006;6.020;2022-08-21T01:50:05;15.60;88.50
43524;DHT22;29120;52.006;6.020;2022-08-21T01:52:31;15.60;88.60
43524;DHT22;29120;52.006;6.020;2022-08-21T01:54:56;15.50;88.70
43524;DHT22;29120;52.006;6.020;2022-08-21T01:57:23;15.50;88.90
43524;DHT22;29120;52.006;6.020;2022-08-21T01:59:48;15.50;89.00
43524;DHT22;29120;52.006;6.020;2022-08-21T02:02:14;15.50;89.10
43524;DHT22;29120;52.006;6.020;2022-08-21T02:04:39;15.40;89.10
43524;DHT22;29120;52.006;6.020;2022-08-21T02:07:05;15.40;89.30
43524;DHT22;29120;52.006;6.020;2022-08-21T02:09:31;15.40;89.40
43524;DHT22;29120;52.006;6.020;2022-08-21T02:11:56;15.40;89.50
43524;DHT22;29120;52.006;6.020;2022-08-21T02:14:22;15.40;89.50
43524;DHT22;29120;52.006;6.020;2022-08-21T02:16:48;15.30;89.50
43524;DHT22;29120;52.006;6.020;2022-08-21T02:19:14;15.30;89.60
43524;DHT22;29120;52.006;6.020;2022-08-21T02:21:40;15.30;89.60
43524;DHT22;29120;52.006;6.020;2022-08-21T02:24:07;15.30;90.10
43524;DHT22;29120;52.006;6.020;2022-08-21T02:26:33;15.30;89.80
43524;DHT22;29120;52.006;6.020;2022-08-21T02:28:58;15.20;89.90
43524;DHT22;29120;52.006;6.020;2022-08-21T02:31:24;15.20;90.00
43524;DHT22;29120;52.006;6.020;2022-08-21T02:33:50;15.20;90.00
43524;DHT22;29120;52.006;6.020;2022-08-21T02:36:16;15.20;90.10
43524;DHT22;29120;52.006;6.020;2022-08-21T02:38:42;15.20;90.00
43524;DHT22;29120;52.006;6.020;2022-08-21T02:41:12;15.20;90.00
43524;DHT22;29120;52.006;6.020;2022-08-21T02:43:37;15.10;90.00
43524;DHT22;29120;52.006;6.020;2022-08-21T02:46:05;15.10;90.00
43524;DHT22;29120;52.006;6.020;2022-08-21T02:48:32;15.10;90.00
43524;DHT22;29120;52.006;6.020;2022-08-21T02:51:04;15.00;90.10
43524;DHT22;29120;52.006;6.020;2022-08-21T02:53:31;15.00;90.10
43524;DHT22;29120;52.006;6.020;2022-08-21T02:55:58;15.00;90.20
43524;DHT22;29120;52.006;6.020;2022-08-21T02:58:27;14.90;90.30
43524;DHT22;29120;52.006;6.020;2022-08-21T03:00:53;14.90;90.30
43524;DHT22;29120;52.006;6.020;2022-08-21T03:03:19;14.90;90.40
43524;DHT22;29120;52.006;6.020;2022-08-21T03:05:46;14.90;90.40
43524;DHT22;29120;52.006;6.020;2022-08-21T03:08:14;14.90;90.40
43524;DHT22;29120;52.006;6.020;2022-08-21T03:10:45;14.90;90.40
43524;DHT22;29120;52.006;6.020;2022-08-21T03:13:12;14.90;90.40
43524;DHT22;29120;52.006;6.020;2022-08-21T03:15:38;14.80;90.40
43524;DHT22;29120;52.006;6.020;2022-08-21T03:18:06;14.80;90.40
43524;DHT22;29120;52.006;6.020;2022-08-21T03:20:33;14.80;90.50
43524;DHT22;29120;52.006;6.020;2022-08-21T03:23:00;14.80;90.50
43524;DHT22;29120;52.006;6.020;2022-08-21T03:25:26;14.80;90.50
43524;DHT22;29120;52.006;6.020;2022-08-21T03:27:53;14.70;90.50
43524;DHT22;29120;52.006;6.020;2022-08-21T03:30:20;14.70;90.60
43524;DHT22;29120;52.006;6.020;2022-08-21T03:32:47;14.70;90.60
43524;DHT22;29120;52.006;6.020;2022-08-21T03:35:13;14.70;90.70
43524;DHT22;29120;52.006;6.020;2022-08-21T03:37:39;14.70;90.70
43524;DHT22;29120;52.006;6.020;2022-08-21T03:40:07;14.70;90.80
43524;DHT22;29120;52.006;6.020;2022-08-21T03:42:33;14.70;90.80
43524;DHT22;29120;52.006;6.020;2022-08-21T03:45:00;14.70;90.80
43524;DHT22;29120;52.006;6.020;2022-08-21T03:47:26;14.60;90.80
43524;DHT22;29120;52.006;6.020;2022-08-21T03:49:51;14.60;90.90
43524;DHT22;29120;52.006;6.020;2022-08-21T03:52:17;14.60;90.90
43524;DHT22;29120;52.006;6.020;2022-08-21T03:54:44;14.60;90.90
43524;DHT22;29120;52.006;6.020;2022-08-21T03:57:10;14.50;90.90
43524;DHT22;29120;52.006;6.020;2022-08-21T03:59:36;14.60;91.00
43524;DHT22;29120;52.006;6.020;2022-08-21T04:02:04;14.60;91.00
43524;DHT22;29120;52.006;6.020;2022-08-21T04:04:29;14.50;91.00
43524;DHT22;29120;52.006;6.020;2022-08-21T04:06:56;14.50;91.00
43524;DHT22;29120;52.006;6.020;2022-08-21T04:09:22;14.50;91.00
43524;DHT22;29120;52.006;6.020;2022-08-21T04:11:48;14.40;91.00
43524;DHT22;29120;52.006;6.020;2022-08-21T04:14:14;14.40;91.00
43524;DHT22;29120;52.006;6.020;2022-08-21T04:16:41;14.40;91.10
43524;DHT22;29120;52.006;6.020;2022-08-21T04:19:07;14.30;91.10
43524;DHT22;29120;52.006;6.020;2022-08-21T04:21:35;14.40;91.10
43524;DHT22;29120;52.006;6.020;2022-08-21T04:24:01;14.40;91.20
43524;DHT22;29120;52.006;6.020;2022-08-21T04:26:26;14.30;91.20
43524;DHT22;29120;52.006;6.020;2022-08-21T04:28:52;14.30;91.20
43524;DHT22;29120;52.006;6.020;2022-08-21T04:31:18;14.30;91.20
43524;DHT22;29120;52.006;6.020;2022-08-21T04:33:44;14.30;91.20
43524;DHT22;29120;52.006;6.020;2022-08-21T04:36:10;14.30;91.20
43524;DHT22;29120;52.006;6.020;2022-08-21T04:38:37;14.30;91.20
43524;DHT22;29120;52.006;6.020;2022-08-21T04:41:02;14.30;91.20
43524;DHT22;29120;52.006;6.020;2022-08-21T04:43:30;14.30;91.30
43524;DHT22;29120;52.006;6.020;2022-08-21T04:45:55;14.30;91.30
43524;DHT22;29120;52.006;6.020;2022-08-21T04:48:21;14.20;91.30
43524;DHT22;29120;52.006;6.020;2022-08-21T04:51:24;14.20;91.40
43524;DHT22;29120;52.006;6.020;2022-08-21T04:53:53;14.20;91.40
43524;DHT22;29120;52.006;6.020;2022-08-21T04:56:30;14.20;91.40
43524;DHT22;29120;52.006;6.020;2022-08-21T04:59:02;14.30;91.50
43524;DHT22;29120;52.006;6.020;2022-08-21T05:01:32;14.30;91.40
43524;DHT22;29120;52.006;6.020;2022-08-21T05:03:59;14.30;91.40
43524;DHT22;29120;52.006;6.020;2022-08-21T05:06:28;14.30;91.50
43524;DHT22;29120;52.006;6.020;2022-08-21T05:08:56;14.30;91.50
43524;DHT22;29120;52.006;6.020;2022-08-21T05:11:22;14.30;91.50
43524;DHT22;29120;52.006;6.020;2022-08-21T05:13:48;14.40;91.60
43524;DHT22;29120;52.006;6.020;2022-08-21T05:16:14;14.40;91.60
43524;DHT22;29120;52.006;6.020;2022-08-21T05:18:41;14.40;91.60
43524;DHT22;29120;52.006;6.020;2022-08-21T05:21:07;14.40;91.60
43524;DHT22;29120;52.006;6.020;2022-08-21T05:23:32;14.50;91.60
43524;DHT22;29120;52.006;6.020;2022-08-21T05:25:58;14.60;91.60
43524;DHT22;29120;52.006;6.020;2022-08-21T05:28:24;14.60;91.60
43524;DHT22;29120;52.006;6.020;2022-08-21T05:30:50;14.70;91.60
43524;DHT22;29120;52.006;6.020;2022-08-21T05:33:16;14.80;91.70
43524;DHT22;29120;52.006;6.020;2022-08-21T05:35:42;14.80;91.70
43524;DHT22;29120;52.006;6.020;2022-08-21T05:38:07;14.90;91.70
43524;DHT22;29120;52.006;6.020;2022-08-21T05:40:33;15.00;91.70
43524;DHT22;29120;52.006;6.020;2022-08-21T05:42:59;15.10;91.70
43524;DHT22;29120;52.006;6.020;2022-08-21T05:45:28;15.30;91.70
43524;DHT22;29120;52.006;6.020;2022-08-21T05:47:54;15.70;91.50
43524;DHT22;29120;52.006;6.020;2022-08-21T05:50:20;16.10;91.00
43524;DHT22;29120;52.006;6.020;2022-08-21T05:52:46;16.60;90.60
43524;DHT22;29120;52.006;6.020;2022-08-21T05:55:12;17.00;90.20
43524;DHT22;29120;52.006;6.020;2022-08-21T05:57:38;17.40;90.00
43524;DHT22;29120;52.006;6.020;2022-08-21T06:00:07;17.80;89.40
43524;DHT22;29120;52.006;6.020;2022-08-21T06:02:34;18.20;88.60
43524;DHT22;29120;52.006;6.020;2022-08-21T06:05:00;18.60;88.00
43524;DHT22;29120;52.006;6.020;2022-08-21T06:07:26;18.90;87.50
43524;DHT22;29120;52.006;6.020;2022-08-21T06:09:51;19.10;86.80
43524;DHT22;29120;52.006;6.020;2022-08-21T06:12:17;19.40;86.20
43524;DHT22;29120;52.006;6.020;2022-08-21T06:14:42;19.60;85.40
43524;DHT22;29120;52.006;6.020;2022-08-21T06:17:10;19.60;85.20
43524;DHT22;29120;52.006;6.020;2022-08-21T06:19:36;19.50;85.40
43524;DHT22;29120;52.006;6.020;2022-08-21T06:22:02;19.40;85.90
43524;DHT22;29120;52.006;6.020;2022-08-21T06:24:28;19.30;86.10
43524;DHT22;29120;52.006;6.020;2022-08-21T06:26:54;19.20;86.10
43524;DHT22;29120;52.006;6.020;2022-08-21T06:29:20;19.20;86.30
43524;DHT22;29120;52.006;6.020;2022-08-21T06:31:48;19.20;86.30
43524;DHT22;29120;52.006;6.020;2022-08-21T06:34:14;19.20;86.20
43524;DHT22;29120;52.006;6.020;2022-08-21T06:36:40;19.30;86.30
43524;DHT22;29120;52.006;6.020;2022-08-21T06:39:05;19.30;86.10
43524;DHT22;29120;52.006;6.020;2022-08-21T06:41:31;19.40;85.90
43524;DHT22;29120;52.006;6.020;2022-08-21T06:43:57;19.40;85.80
43524;DHT22;29120;52.006;6.020;2022-08-21T06:46:26;19.50;85.60
43524;DHT22;29120;52.006;6.020;2022-08-21T06:48:52;19.60;85.30
43524;DHT22;29120;52.006;6.020;2022-08-21T06:51:18;19.70;85.10
43524;DHT22;29120;52.006;6.020;2022-08-21T06:53:44;19.80;84.60
43524;DHT22;29120;52.006;6.020;2022-08-21T06:56:10;19.90;84.40
43524;DHT22;29120;52.006;6.020;2022-08-21T06:58:36;20.00;84.10
43524;DHT22;29120;52.006;6.020;2022-08-21T07:01:01;20.10;83.90
43524;DHT22;29120;52.006;6.020;2022-08-21T07:03:31;20.20;83.40
43524;DHT22;29120;52.006;6.020;2022-08-21T07:05:57;20.30;83.10
43524;DHT22;29120;52.006;6.020;2022-08-21T07:08:24;20.40;82.80
43524;DHT22;29120;52.006;6.020;2022-08-21T07:10:52;20.50;82.60
43524;DHT22;29120;52.006;6.020;2022-08-21T07:13:18;20.60;82.40
43524;DHT22;29120;52.006;6.020;2022-08-21T07:15:44;20.80;82.00
43524;DHT22;29120;52.006;6.020;2022-08-21T07:18:10;20.80;81.50
43524;DHT22;29120;52.006;6.020;2022-08-21T07:20:37;20.90;81.10
43524;DHT22;29120;52.006;6.020;2022-08-21T07:23:06;21.00;80.80
43524;DHT22;29120;52.006;6.020;2022-08-21T07:25:33;21.10;80.40
43524;DHT22;29120;52.006;6.020;2022-08-21T07:27:58;21.20;79.80
43524;DHT22;29120;52.006;6.020;2022-08-21T07:30:24;21.30;79.90
43524;DHT22;29120;52.006;6.020;2022-08-21T07:32:50;21.40;79.40
43524;DHT22;29120;52.006;6.020;2022-08-21T07:35:17;21.40;78.90
43524;DHT22;29120;52.006;6.020;2022-08-21T07:37:43;21.50;78.70
43524;DHT22;29120;52.006;6.020;2022-08-21T07:40:08;21.60;78.40
43524;DHT22;29120;52.006;6.020;2022-08-21T07:42:34;21.70;78.00
43524;DHT22;29120;52.006;6.020;2022-08-21T07:44:59;21.70;77.70
43524;DHT22;29120;52.006;6.020;2022-08-21T07:47:25;21.90;77.50
43524;DHT22;29120;52.006;6.020;2022-08-21T07:49:50;22.10;77.30
43524;DHT22;29120;52.006;6.020;2022-08-21T07:52:16;22.20;76.90
43524;DHT22;29120;52.006;6.020;2022-08-21T07:54:42;22.40;76.20
43524;DHT22;29120;52.006;6.020;2022-08-21T07:57:07;22.50;75.70
43524;DHT22;29120;52.006;6.020;2022-08-21T07:59:33;22.70;75.20
43524;DHT22;29120;52.006;6.020;2022-08-21T08:01:58;22.90;74.70
43524;DHT22;29120;52.006;6.020;2022-08-21T08:04:24;23.20;74.30
43524;DHT22;29120;52.006;6.020;2022-08-21T08:06:50;23.40;73.90
43524;DHT22;29120;52.006;6.020;2022-08-21T08:09:15;23.60;73.20
43524;DHT22;29120;52.006;6.020;2022-08-21T08:11:42;23.60;73.10
43524;DHT22;29120;52.006;6.020;2022-08-21T08:14:11;23.50;72.80
43524;DHT22;29120;52.006;6.020;2022-08-21T08:16:37;23.40;72.90
43524;DHT22;29120;52.006;6.020;2022-08-21T08:19:02;23.30;73.20
43524;DHT22;29120;52.006;6.020;2022-08-21T08:21:29;23.10;73.60
43524;DHT22;29120;52.006;6.020;2022-08-21T08:23:54;23.30;73.70
43524;DHT22;29120;52.006;6.020;2022-08-21T08:26:20;23.50;73.20
43524;DHT22;29120;52.006;6.020;2022-08-21T08:28:45;23.70;73.00
43524;DHT22;29120;52.006;6.020;2022-08-21T08:31:13;23.90;72.50
43524;DHT22;29120;52.006;6.020;2022-08-21T08:33:38;24.00;72.10
43524;DHT22;29120;52.006;6.020;2022-08-21T08:36:04;24.20;71.60
43524;DHT22;29120;52.006;6.020;2022-08-21T08:38:30;24.30;71.40
43524;DHT22;29120;52.006;6.020;2022-08-21T08:41:11;24.40;71.10
43524;DHT22;29120;52.006;6.020;2022-08-21T08:43:38;24.60;71.10
43524;DHT22;29120;52.006;6.020;2022-08-21T08:46:10;24.80;70.70
43524;DHT22;29120;52.006;6.020;2022-08-21T08:48:50;24.80;70.10
43524;DHT22;29120;52.006;6.020;2022-08-21T08:51:40;25.00;69.60
43524;DHT22;29120;52.006;6.020;2022-08-21T08:54:11;25.10;69.60
43524;DHT22;29120;52.006;6.020;2022-08-21T08:56:38;25.30;69.80
43524;DHT22;29120;52.006;6.020;2022-08-21T08:59:26;25.60;69.10
43524;DHT22;29120;52.006;6.020;2022-08-21T09:01:53;25.90;68.50
43524;DHT22;29120;52.006;6.020;2022-08-21T09:04:25;26.30;68.00
43524;DHT22;29120;52.006;6.020;2022-08-21T09:15:25;29.00;60.10
43524;DHT22;29120;52.006;6.020;2022-08-21T09:20:27;28.70;59.60
43524;DHT22;29120;52.006;6.020;2022-08-21T09:23:11;28.90;59.30
43524;DHT22;29120;52.006;6.020;2022-08-21T09:25:50;29.10;58.80
43524;DHT22;29120;52.006;6.020;2022-08-21T09:28:20;29.20;59.00
43524;DHT22;29120;52.006;6.020;2022-08-21T09:30:45;29.30;58.20
43524;DHT22;29120;52.006;6.020;2022-08-21T09:33:13;29.20;58.10
43524;DHT22;29120;52.006;6.020;2022-08-21T09:35:50;29.00;57.40
43524;DHT22;29120;52.006;6.020;2022-08-21T09:38:26;28.90;57.80
43524;DHT22;29120;52.006;6.020;2022-08-21T09:41:06;29.30;57.80
43524;DHT22;29120;52.006;6.020;2022-08-21T09:43:33;29.80;57.30
43524;DHT22;29120;52.006;6.020;2022-08-21T09:48:27;30.60;54.80
43524;DHT22;29120;52.006;6.020;2022-08-21T09:51:06;30.90;54.20
43524;DHT22;29120;52.006;6.020;2022-08-21T09:53:32;30.40;54.10
43524;DHT22;29120;52.006;6.020;2022-08-21T09:56:04;31.00;53.90
43524;DHT22;29120;52.006;6.020;2022-08-21T09:58:49;32.20;52.40
43524;DHT22;29120;52.006;6.020;2022-08-21T10:01:22;33.00;51.30
43524;DHT22;29120;52.006;6.020;2022-08-21T10:03:48;32.80;50.50
43524;DHT22;29120;52.006;6.020;2022-08-21T10:06:27;31.90;50.70
43524;DHT22;29120;52.006;6.020;2022-08-21T10:09:11;32.40;50.50
43524;DHT22;29120;52.006;6.020;2022-08-21T10:11:37;33.30;49.70
43524;DHT22;29120;52.006;6.020;2022-08-21T10:14:36;34.60;48.60
43524;DHT22;29120;52.006;6.020;2022-08-21T10:20:07;33.50;48.30
43524;DHT22;29120;52.006;6.020;2022-08-21T10:25:39;34.70;45.80
43524;DHT22;29120;52.006;6.020;2022-08-21T10:31:13;33.90;45.20
43524;DHT22;29120;52.006;6.020;2022-08-21T10:33:43;32.70;46.50
43524;DHT22;29120;52.006;6.020;2022-08-21T10:39:07;32.60;47.80
43524;DHT22;29120;52.006;6.020;2022-08-21T10:41:39;33.40;47.00
43524;DHT22;29120;52.006;6.020;2022-08-21T10:44:23;34.10;47.40
43524;DHT22;29120;52.006;6.020;2022-08-21T10:47:19;34.40;45.90
43524;DHT22;29120;52.006;6.020;2022-08-21T10:55:49;35.50;43.20
43524;DHT22;29120;52.006;6.020;2022-08-21T10:58:39;35.10;43.70
43524;DHT22;29120;52.006;6.020;2022-08-21T11:01:23;35.80;43.80
43524;DHT22;29120;52.006;6.020;2022-08-21T11:06:53;33.90;44.10
43524;DHT22;29120;52.006;6.020;2022-08-21T11:09:24;33.80;45.10
43524;DHT22;29120;52.006;6.020;2022-08-21T11:12:03;34.40;44.90
43524;DHT22;29120;52.006;6.020;2022-08-21T11:14:41;35.50;43.90
43524;DHT22;29120;52.006;6.020;2022-08-21T11:17:13;36.30;42.70
43524;DHT22;29120;52.006;6.020;2022-08-21T11:25:22;35.00;42.00
43524;DHT22;29120;52.006;6.020;2022-08-21T11:28:21;34.50;42.70
43524;DHT22;29120;52.006;6.020;2022-08-21T11:34:13;34.90;42.60
43524;DHT22;29120;52.006;6.020;2022-08-21T11:37:02;34.00;43.80
43524;DHT22;29120;52.006;6.020;2022-08-21T11:42:48;35.90;41.80
43524;DHT22;29120;52.006;6.020;2022-08-21T11:45:38;36.80;41.10
43524;DHT22;29120;52.006;6.020;2022-08-21T11:48:16;37.40;40.70
43524;DHT22;29120;52.006;6.020;2022-08-21T11:50:48;37.80;40.00
43524;DHT22;29120;52.006;6.020;2022-08-21T11:53:20;37.80;39.40
43524;DHT22;29120;52.006;6.020;2022-08-21T11:56:02;38.10;38.70
43524;DHT22;29120;52.006;6.020;2022-08-21T11:58:41;37.80;38.10
43524;DHT22;29120;52.006;6.020;2022-08-21T12:01:14;36.40;38.50
43524;DHT22;29120;52.006;6.020;2022-08-21T12:03:52;36.70;39.00
43524;DHT22;29120;52.006;6.020;2022-08-21T12:06:37;37.30;38.30
43524;DHT22;29120;52.006;6.020;2022-08-21T12:09:29;37.90;38.30
43524;DHT22;29120;52.006;6.020;2022-08-21T12:12:05;37.90;38.20
43524;DHT22;29120;52.006;6.020;2022-08-21T12:14:40;38.20;37.80
43524;DHT22;29120;52.006;6.020;2022-08-21T12:17:09;38.60;38.00
43524;DHT22;29120;52.006;6.020;2022-08-21T12:19:42;38.80;38.10
43524;DHT22;29120;52.006;6.020;2022-08-21T12:22:13;38.40;37.60
43524;DHT22;29120;52.006;6.020;2022-08-21T12:24:43;37.00;37.90
43524;DHT22;29120;52.006;6.020;2022-08-21T12:27:13;36.80;38.30
43524;DHT22;29120;52.006;6.020;2022-08-21T12:29:46;35.80;38.70
43524;DHT22;29120;52.006;6.020;2022-08-21T12:34:47;37.10;38.40
43524;DHT22;29120;52.006;6.020;2022-08-21T12:40:55;38.30;37.60
43524;DHT22;29120;52.006;6.020;2022-08-21T12:43:34;38.40;36.20
43524;DHT22;29120;52.006;6.020;2022-08-21T12:46:00;38.30;36.00
43524;DHT22;29120;52.006;6.020;2022-08-21T12:51:15;37.00;38.00
43524;DHT22;29120;52.006;6.020;2022-08-21T12:56:15;37.70;37.30
43524;DHT22;29120;52.006;6.020;2022-08-21T12:58:45;37.80;37.30
43524;DHT22;29120;52.006;6.020;2022-08-21T13:01:35;38.00;37.30
43524;DHT22;29120;52.006;6.020;2022-08-21T13:04:05;38.30;37.20
43524;DHT22;29120;52.006;6.020;2022-08-21T13:06:38;38.10;36.70
43524;DHT22;29120;52.006;6.020;2022-08-21T13:09:07;37.10;37.40
43524;DHT22;29120;52.006;6.020;2022-08-21T13:11:33;37.00;38.20
43524;DHT22;29120;52.006;6.020;2022-08-21T13:14:02;37.20;38.00
43524;DHT22;29120;52.006;6.020;2022-08-21T13:16:29;37.60;37.30
43524;DHT22;29120;52.006;6.020;2022-08-21T13:18:58;37.70;37.30
43524;DHT22;29120;52.006;6.020;2022-08-21T13:21:40;36.80;37.40
43524;DHT22;29120;52.006;6.020;2022-08-21T13:24:15;35.50;38.10
43524;DHT22;29120;52.006;6.020;2022-08-21T13:26:42;35.40;39.10
43524;DHT22;29120;52.006;6.020;2022-08-21T13:29:13;35.10;38.90
43524;DHT22;29120;52.006;6.020;2022-08-21T13:31:45;34.80;39.00
43524;DHT22;29120;52.006;6.020;2022-08-21T13:34:11;35.00;39.20
43524;DHT22;29120;52.006;6.020;2022-08-21T13:36:41;35.60;38.90
43524;DHT22;29120;52.006;6.020;2022-08-21T13:39:11;36.00;38.10
43524;DHT22;29120;52.006;6.020;2022-08-21T13:41:40;36.20;37.60
43524;DHT22;29120;52.006;6.020;2022-08-21T13:44:35;36.10;37.20
43524;DHT22;29120;52.006;6.020;2022-08-21T13:47:03;36.20;37.30
43524;DHT22;29120;52.006;6.020;2022-08-21T13:49:34;36.30;36.90
43524;DHT22;29120;52.006;6.020;2022-08-21T13:52:02;36.50;37.20
43524;DHT22;29120;52.006;6.020;2022-08-21T13:54:42;36.20;37.20
43524;DHT22;29120;52.006;6.020;2022-08-21T13:57:18;36.20;36.90
43524;DHT22;29120;52.006;6.020;2022-08-21T13:59:44;36.50;36.40
43524;DHT22;29120;52.006;6.020;2022-08-21T14:02:22;36.50;36.60
43524;DHT22;29120;52.006;6.020;2022-08-21T14:05:02;36.30;36.40
43524;DHT22;29120;52.006;6.020;2022-08-21T14:07:37;35.80;36.50
43524;DHT22;29120;52.006;6.020;2022-08-21T14:10:08;35.80;37.00
43524;DHT22;29120;52.006;6.020;2022-08-21T14:12:59;35.30;37.70
43524;DHT22;29120;52.006;6.020;2022-08-21T14:15:24;35.10;37.60
43524;DHT22;29120;52.006;6.020;2022-08-21T14:17:51;35.30;38.10
43524;DHT22;29120;52.006;6.020;2022-08-21T14:20:35;35.30;36.50
43524;DHT22;29120;52.006;6.020;2022-08-21T14:23:01;35.00;36.60
43524;DHT22;29120;52.006;6.020;2022-08-21T14:25:36;34.90;37.80
43524;DHT22;29120;52.006;6.020;2022-08-21T14:28:03;35.10;37.70
43524;DHT22;29120;52.006;6.020;2022-08-21T14:30:38;35.40;37.50
43524;DHT22;29120;52.006;6.020;2022-08-21T14:33:11;35.50;37.30
43524;DHT22;29120;52.006;6.020;2022-08-21T14:35:38;35.50;37.40
43524;DHT22;29120;52.006;6.020;2022-08-21T14:38:13;35.40;36.80
43524;DHT22;29120;52.006;6.020;2022-08-21T14:40:38;35.20;36.70
43524;DHT22;29120;52.006;6.020;2022-08-21T14:43:04;34.90;36.70
43524;DHT22;29120;52.006;6.020;2022-08-21T14:45:31;34.60;37.20
43524;DHT22;29120;52.006;6.020;2022-08-21T14:47:57;34.60;37.40
43524;DHT22;29120;52.006;6.020;2022-08-21T14:50:24;34.20;37.80
43524;DHT22;29120;52.006;6.020;2022-08-21T14:52:50;33.80;38.60
43524;DHT22;29120;52.006;6.020;2022-08-21T14:55:17;33.20;38.20
43524;DHT22;29120;52.006;6.020;2022-08-21T14:57:46;32.80;38.40
43524;DHT22;29120;52.006;6.020;2022-08-21T15:00:19;32.70;39.00
43524;DHT22;29120;52.006;6.020;2022-08-21T15:02:45;32.80;39.80
43524;DHT22;29120;52.006;6.020;2022-08-21T15:05:12;32.70;39.50
43524;DHT22;29120;52.006;6.020;2022-08-21T15:07:38;32.50;39.40
43524;DHT22;29120;52.006;6.020;2022-08-21T15:10:06;32.10;39.20
43524;DHT22;29120;52.006;6.020;2022-08-21T15:12:32;31.70;39.60
43524;DHT22;29120;52.006;6.020;2022-08-21T15:14:57;31.60;40.20
43524;DHT22;29120;52.006;6.020;2022-08-21T15:17:23;31.50;40.90
43524;DHT22;29120;52.006;6.020;2022-08-21T15:19:49;31.50;41.10
43524;DHT22;29120;52.006;6.020;2022-08-21T15:22:15;31.30;41.40
43524;DHT22;29120;52.006;6.020;2022-08-21T15:24:40;31.00;41.40
43524;DHT22;29120;52.006;6.020;2022-08-21T15:27:08;30.80;41.70
43524;DHT22;29120;52.006;6.020;2022-08-21T15:29:34;30.50;41.90
43524;DHT22;29120;52.006;6.020;2022-08-21T15:32:18;30.30;42.10
43524;DHT22;29120;52.006;6.020;2022-08-21T15:34:44;30.20;42.60
43524;DHT22;29120;52.006;6.020;2022-08-21T15:37:09;30.20;43.10
43524;DHT22;29120;52.006;6.020;2022-08-21T15:39:35;30.10;43.20
43524;DHT22;29120;52.006;6.020;2022-08-21T15:42:01;30.10;43.30
43524;DHT22;29120;52.006;6.020;2022-08-21T15:44:27;30.00;43.50
43524;DHT22;29120;52.006;6.020;2022-08-21T15:46:54;29.90;43.50
43524;DHT22;29120;52.006;6.020;2022-08-21T15:49:20;29.80;43.50
43524;DHT22;29120;52.006;6.020;2022-08-21T15:51:46;29.70;43.80
43524;DHT22;29120;52.006;6.020;2022-08-21T15:54:11;29.50;43.80
43524;DHT22;29120;52.006;6.020;2022-08-21T15:56:39;29.40;44.00
43524;DHT22;29120;52.006;6.020;2022-08-21T15:59:08;29.30;44.30
43524;DHT22;29120;52.006;6.020;2022-08-21T16:01:38;29.20;44.20
43524;DHT22;29120;52.006;6.020;2022-08-21T16:04:04;29.10;44.20
43524;DHT22;29120;52.006;6.020;2022-08-21T16:06:31;28.90;44.20
43524;DHT22;29120;52.006;6.020;2022-08-21T16:08:58;28.80;44.70
43524;DHT22;29120;52.006;6.020;2022-08-21T16:11:24;28.70;44.90
43524;DHT22;29120;52.006;6.020;2022-08-21T16:13:50;28.70;44.90
43524;DHT22;29120;52.006;6.020;2022-08-21T16:16:20;28.50;45.00
43524;DHT22;29120;52.006;6.020;2022-08-21T16:18:46;28.40;45.20
43524;DHT22;29120;52.006;6.020;2022-08-21T16:21:13;28.40;45.60
43524;DHT22;29120;52.006;6.020;2022-08-21T16:23:39;28.20;46.00
43524;DHT22;29120;52.006;6.020;2022-08-21T16:26:07;28.10;46.30
43524;DHT22;29120;52.006;6.020;2022-08-21T16:28:35;28.00;46.70
43524;DHT22;29120;52.006;6.020;2022-08-21T16:31:02;27.90;47.10
43524;DHT22;29120;52.006;6.020;2022-08-21T16:33:43;27.80;47.20
43524;DHT22;29120;52.006;6.020;2022-08-21T16:36:12;27.70;47.70
43524;DHT22;29120;52.006;6.020;2022-08-21T16:38:38;27.60;48.00
43524;DHT22;29120;52.006;6.020;2022-08-21T16:41:08;27.60;48.10